Time;durP1;ratioP1;P1;durP2;ratioP2;P2;SDS_P1;SDS_P2;PMS_P1;PMS_P2;Temp;Humidity;BMP_temperature;BMP_pressure;BME280_temperature;BME280_humidity;BME280_pressure;Samples;Min_cycle;Max_cycle;Signal;HPM_P1;HPM_P2
2023/10/27 00:01:05;;;;;;;26.60;14.15;;;;;;;10.74;100.00;99079.38;5112674;28;20095;-66
2023/10/27 00:03:30;;;;;;;32.80;15.77;;;;;;;10.74;100.00;99081.22;5092476;28;20031;-65
2023/10/27 00:05:58;;;;;;;27.35;15.68;;;;;;;10.74;100.00;99074.06;5094067;28;20055;-65
2023/10/27 00:08:24;;;;;;;32.20;15.95;;;;;;;10.75;100.00;99074.91;5109296;28;20028;-65
2023/10/27 00:10:49;;;;;;;31.50;16.10;;;;;;;10.74;100.00;99074.06;5092413;28;20091;-65
2023/10/27 00:13:15;;;;;;;30.60;16.20;;;;;;;10.68;100.00;99064.84;5094327;28;20394;-65
2023/10/27 00:15:40;;;;;;;36.22;29.33;;;;;;;10.64;100.00;99073.22;5112456;28;20032;-65
2023/10/27 00:18:06;;;;;;;23.90;13.93;;;;;;;10.73;100.00;99077.69;5110530;28;20431;-65
2023/10/27 00:20:32;;;;;;;28.67;15.50;;;;;;;10.72;100.00;99070.69;5089508;28;20482;-65
2023/10/27 00:22:57;;;;;;;34.33;15.95;;;;;;;10.73;100.00;99067.06;5093784;28;20035;-65
2023/10/27 00:25:23;;;;;;;39.35;31.08;;;;;;;10.63;100.00;99067.06;5110789;28;20058;-65
2023/10/27 00:27:49;;;;;;;35.05;17.02;;;;;;;10.71;100.00;99062.84;5110755;28;20072;-65
2023/10/27 00:30:14;;;;;;;36.85;16.77;;;;;;;10.71;100.00;99063.72;5107249;28;20049;-65
2023/10/27 00:32:40;;;;;;;29.08;16.48;;;;;;;10.70;100.00;99067.34;5093329;28;20030;-65
2023/10/27 00:35:05;;;;;;;32.05;16.40;;;;;;;10.68;100.00;99059.53;5093703;28;20031;-65
2023/10/27 00:37:35;;;;;;;33.20;15.93;;;;;;;10.71;100.00;99060.19;5094168;28;20034;-65
2023/10/27 00:40:02;;;;;;;42.15;17.40;;;;;;;10.69;100.00;99055.03;5112406;28;20099;-65
2023/10/27 00:42:27;;;;;;;31.40;16.63;;;;;;;10.61;100.00;99045.09;5093470;28;20024;-65
2023/10/27 00:44:52;;;;;;;41.70;31.15;;;;;;;10.57;100.00;99049.03;5091073;28;20111;-65
2023/10/27 00:47:18;;;;;;;38.78;17.88;;;;;;;10.67;100.00;99055.16;5112039;28;20028;-65
2023/10/27 00:49:44;;;;;;;43.83;32.83;;;;;;;10.54;100.00;99051.13;5111709;28;20122;-65
2023/10/27 00:52:12;;;;;;;46.72;35.03;;;;;;;10.49;100.00;99048.88;5111728;28;20020;-65
2023/10/27 00:54:41;;;;;;;32.15;17.10;;;;;;;10.64;100.00;99050.13;5110585;28;20035;-65
2023/10/27 00:57:07;;;;;;;44.40;34.60;;;;;;;10.59;100.00;99047.06;5112429;27;20047;-64
2023/10/27 00:59:34;;;;;;;35.92;16.10;;;;;;;10.67;100.00;99047.19;5111989;28;20090;-65
2023/10/27 01:01:59;;;;;;;32.20;17.05;;;;;;;10.67;100.00;99041.88;5093443;28;20024;-64
2023/10/27 01:04:25;;;;;;;27.17;15.68;;;;;;;10.72;100.00;99044.13;5091293;28;20102;-65
2023/10/27 01:06:52;;;;;;;33.45;16.10;;;;;;;10.60;100.00;99023.97;5093389;28;20032;-66
2023/10/27 01:09:17;;;;;;;30.42;16.58;;;;;;;10.72;100.00;99045.94;5092378;28;20495;-65
2023/10/27 01:11:44;;;;;;;28.80;15.63;;;;;;;10.69;100.00;99050.56;5091433;28;20115;-65
2023/10/27 01:14:10;;;;;;;26.95;15.48;;;;;;;10.68;100.00;99040.06;5111821;27;20110;-65
2023/10/27 01:16:37;;;;;;;35.58;15.70;;;;;;;10.67;100.00;99041.88;5111255;28;20111;-66
2023/10/27 01:19:03;;;;;;;27.73;15.23;;;;;;;10.69;100.00;99042.56;5111648;28;20027;-64
2023/10/27 01:21:29;;;;;;;24.08;14.85;;;;;;;10.70;100.00;99038.09;5109645;28;20092;-65
2023/10/27 01:23:57;;;;;;;32.50;13.95;;;;;;;10.69;100.00;99039.09;5111264;28;20038;-65
2023/10/27 01:26:23;;;;;;;32.17;14.77;;;;;;;10.68;100.00;99035.59;5110652;28;20027;-65
2023/10/27 01:28:48;;;;;;;37.15;27.45;;;;;;;10.58;100.00;99042.72;5109562;28;20386;-65
2023/10/27 01:31:16;;;;;;;31.83;13.75;;;;;;;10.66;100.00;99037.53;5109325;28;20028;-64
2023/10/27 01:33:41;;;;;;;26.50;14.38;;;;;;;10.69;100.00;99041.75;5071564;28;20029;-65
2023/10/27 01:36:07;;;;;;;35.28;26.33;;;;;;;10.64;100.00;99039.50;5109434;28;20761;-65
2023/10/27 01:38:32;;;;;;;30.48;13.88;;;;;;;10.71;100.00;99037.13;5110421;28;20483;-65
2023/10/27 01:40:57;;;;;;;30.25;13.20;;;;;;;10.74;100.00;99041.31;5110206;28;20043;-65
2023/10/27 01:43:23;;;;;;;28.38;12.90;;;;;;;10.68;100.00;99035.59;5109840;28;20023;-65
2023/10/27 01:45:48;;;;;;;34.20;23.42;;;;;;;10.55;100.00;99032.38;5109159;28;20020;-65
2023/10/27 01:48:14;;;;;;;24.42;12.30;;;;;;;10.68;100.00;99040.06;5090792;28;20039;-65
2023/10/27 01:50:39;;;;;;;28.75;13.25;;;;;;;10.69;100.00;99034.59;5108357;28;20019;-65
2023/10/27 01:53:04;;;;;;;27.73;12.05;;;;;;;10.67;100.00;99033.06;5090672;28;20145;-65
2023/10/27 01:55:30;;;;;;;25.35;12.10;;;;;;;10.65;100.00;99022.59;5109961;28;20034;-65
2023/10/27 01:57:57;;;;;;;24.13;11.75;;;;;;;10.71;100.00;99029.16;5110755;28;20058;-64
2023/10/27 02:00:22;;;;;;;20.60;12.43;;;;;;;10.74;100.00;99033.34;5091713;28;20024;-65
2023/10/27 02:02:48;;;;;;;31.60;13.02;;;;;;;10.69;100.00;99026.63;5111121;28;20022;-65
2023/10/27 02:05:13;;;;;;;22.85;11.85;;;;;;;10.72;100.00;99022.84;5110725;28;20042;-65
2023/10/27 02:07:39;;;;;;;19.45;11.57;;;;;;;10.73;100.00;99026.34;5110894;28;20119;-65
2023/10/27 02:10:05;;;;;;;22.40;11.77;;;;;;;10.69;100.00;99020.47;5090020;28;20051;-65
2023/10/27 02:12:31;;;;;;;25.63;13.13;;;;;;;10.66;100.00;99023.41;5111168;28;20081;-65
2023/10/27 02:14:56;;;;;;;19.70;10.95;;;;;;;10.61;100.00;99013.19;5110155;28;20024;-64
2023/10/27 02:17:24;;;;;;;19.13;11.95;;;;;;;10.61;100.00;99015.03;5092229;28;20028;-64
2023/10/27 02:19:54;;;;;;;18.40;10.63;;;;;;;10.62;100.00;99016.72;5090230;28;20028;-64
2023/10/27 02:22:20;;;;;;;28.52;11.93;;;;;;;10.57;100.00;99003.84;5110786;28;20498;-65
2023/10/27 02:24:45;;;;;;;27.88;19.25;;;;;;;10.50;100.00;99009.84;5090158;28;20035;-65
2023/10/27 02:27:11;;;;;;;23.75;11.80;;;;;;;10.56;100.00;98996.00;5107647;28;20364;-64
2023/10/27 02:29:36;;;;;;;19.95;10.15;;;;;;;10.62;100.00;99008.75;5089664;28;20138;-65
2023/10/27 02:32:04;;;;;;;18.02;10.63;;;;;;;10.63;100.00;99003.25;5090842;28;20027;-65
2023/10/27 02:34:30;;;;;;;22.00;10.45;;;;;;;10.65;100.00;99005.78;5110232;28;20103;-65
2023/10/27 02:36:55;;;;;;;25.50;10.88;;;;;;;10.65;100.00;99006.63;5109306;28;20110;-65
2023/10/27 02:39:20;;;;;;;20.67;9.48;;;;;;;10.62;100.00;99004.25;5113859;28;20015;-64
2023/10/27 02:41:46;;;;;;;28.67;16.35;;;;;;;10.50;100.00;98999.22;5112645;28;20024;-64
2023/10/27 02:44:12;;;;;;;18.00;8.95;;;;;;;10.57;100.00;98998.53;5113585;28;20032;-65
2023/10/27 02:46:38;;;;;;;20.13;8.38;;;;;;;10.50;100.00;98997.44;5093984;28;20029;-64
2023/10/27 02:49:04;;;;;;;20.05;9.82;;;;;;;10.46;100.00;98993.34;5114001;28;20027;-65
2023/10/27 02:51:30;;;;;;;25.83;8.60;;;;;;;10.46;100.00;98993.34;5093604;28;20066;-65
2023/10/27 02:53:58;;;;;;;17.73;8.65;;;;;;;10.45;100.00;98986.38;5113218;28;20019;-64
2023/10/27 02:56:23;;;;;;;19.75;10.30;;;;;;;10.49;100.00;98992.22;5094334;28;20053;-65
2023/10/27 02:58:50;;;;;;;15.93;7.78;;;;;;;10.49;100.00;98981.59;5111885;28;20498;-65
2023/10/27 03:01:16;;;;;;;20.05;8.32;;;;;;;10.52;100.00;98978.66;5093412;28;20036;-64
2023/10/27 03:03:44;;;;;;;16.73;8.77;;;;;;;10.48;100.00;98977.28;5112730;28;20094;-65
2023/10/27 03:06:11;;;;;;;14.73;7.00;;;;;;;10.49;100.00;98981.59;5094183;28;20020;-64
2023/10/27 03:08:37;;;;;;;24.52;13.38;;;;;;;10.41;100.00;98983.16;5112875;28;20106;-65
2023/10/27 03:11:03;;;;;;;21.15;7.82;;;;;;;10.45;100.00;98978.41;5113651;28;20020;-64
2023/10/27 03:13:29;;;;;;;13.98;8.05;;;;;;;10.46;100.00;98986.22;5113885;28;20088;-64
2023/10/27 03:15:54;;;;;;;14.10;7.80;;;;;;;10.48;100.00;98982.59;5113041;28;20505;-65
2023/10/27 03:18:20;;;;;;;20.65;8.32;;;;;;;10.47;100.00;98973.78;5093525;28;20016;-65
2023/10/27 03:20:45;;;;;;;19.48;7.18;;;;;;;10.54;100.00;98979.38;5093879;28;20027;-65
2023/10/27 03:23:11;;;;;;;18.00;7.20;;;;;;;10.56;100.00;98983.56;5113950;28;20027;-64
2023/10/27 03:25:36;;;;;;;22.58;13.48;;;;;;;10.43;100.00;98967.06;5110302;28;20482;-65
2023/10/27 03:28:01;;;;;;;19.35;8.10;;;;;;;10.55;100.00;98983.69;5112326;28;20359;-65
2023/10/27 03:30:28;;;;;;;16.75;7.63;;;;;;;10.57;100.00;98981.75;5112934;28;20500;-65
2023/10/27 03:32:53;;;;;;;14.52;7.53;;;;;;;10.57;100.00;98984.41;5093588;28;20027;-64
2023/10/27 03:35:19;;;;;;;23.90;12.18;;;;;;;10.44;100.00;98974.91;5112297;28;20028;-64
2023/10/27 03:37:45;;;;;;;20.45;11.50;;;;;;;10.39;100.00;98963.03;5112818;28;20550;-65
2023/10/27 03:40:11;;;;;;;23.05;11.82;;;;;;;10.41;100.00;98977.00;5112956;28;20016;-64
2023/10/27 03:42:36;;;;;;;18.67;11.90;;;;;;;10.42;100.00;98973.38;5090796;28;20474;-64
2023/10/27 03:45:02;;;;;;;17.83;6.95;;;;;;;10.54;100.00;98974.88;5094528;28;20024;-64
2023/10/27 03:47:27;;;;;;;24.48;12.00;;;;;;;10.35;100.00;98966.94;5094155;28;20019;-64
2023/10/27 03:49:52;;;;;;;23.88;12.82;;;;;;;10.40;100.00;98970.00;5110401;28;20106;-65
2023/10/27 03:52:18;;;;;;;14.55;6.90;;;;;;;10.52;100.00;98962.72;5113093;28;20026;-65
2023/10/27 03:54:43;;;;;;;12.30;6.38;;;;;;;10.54;100.00;98961.59;5112152;28;20153;-65
2023/10/27 03:57:11;;;;;;;16.77;8.35;;;;;;;10.55;100.00;98968.56;5111565;28;20416;-63
2023/10/27 03:59:37;;;;;;;20.45;11.80;;;;;;;10.41;100.00;98967.22;5112857;28;20122;-65
2023/10/27 04:02:02;;;;;;;16.40;7.10;;;;;;;10.53;100.00;98969.69;5113067;28;20593;-65
2023/10/27 04:04:27;;;;;;;9.55;5.82;;;;;;;10.56;100.00;98961.44;5114461;27;20490;-65
2023/10/27 04:06:57;;;;;;;12.88;6.25;;;;;;;10.57;100.00;98963.13;5112526;28;20031;-65
2023/10/27 04:09:26;;;;;;;17.60;11.77;;;;;;;10.42;100.00;98957.44;5112678;28;20110;-64
2023/10/27 04:11:53;;;;;;;18.17;11.67;;;;;;;10.46;100.00;98964.13;5112456;28;20482;-64
2023/10/27 04:14:19;;;;;;;12.38;6.40;;;;;;;10.54;100.00;98969.56;5113110;28;20063;-65
2023/10/27 04:16:44;;;;;;;14.50;6.38;;;;;;;10.46;100.00;98954.31;5093430;28;20121;-64
2023/10/27 04:19:10;;;;;;;16.15;11.25;;;;;;;10.38;100.00;98961.31;5093880;28;20035;-65
2023/10/27 04:21:35;;;;;;;15.40;6.45;;;;;;;10.56;100.00;98972.94;5094256;28;20474;-65
2023/10/27 04:24:01;;;;;;;11.85;6.15;;;;;;;10.58;100.00;98970.13;5094119;28;20032;-65
2023/10/27 04:26:27;;;;;;;14.63;5.35;;;;;;;10.55;100.00;98973.88;5094229;28;20020;-65
2023/10/27 04:28:53;;;;;;;15.15;6.20;;;;;;;10.54;100.00;98966.06;5112231;28;20019;-65
2023/10/27 04:31:18;;;;;;;13.70;6.43;;;;;;;10.52;100.00;98968.03;5091778;28;20033;-65
2023/10/27 04:33:47;;;;;;;9.05;5.78;;;;;;;10.52;100.00;98968.88;5110695;28;20096;-65
2023/10/27 04:36:14;;;;;;;10.38;5.25;;;;;;;10.54;100.00;98969.56;5110758;28;20059;-65
2023/10/27 04:38:40;;;;;;;12.82;6.38;;;;;;;10.54;100.00;98966.91;5110597;28;20023;-65
2023/10/27 04:41:05;;;;;;;17.02;6.57;;;;;;;10.53;100.00;98965.25;5110108;28;20016;-65
2023/10/27 04:43:31;;;;;;;15.88;6.88;;;;;;;10.55;100.00;98973.88;5111937;28;20019;-65
2023/10/27 04:45:56;;;;;;;13.85;5.50;;;;;;;10.57;100.00;98973.75;5092151;28;20023;-65
2023/10/27 04:48:22;;;;;;;16.40;9.88;;;;;;;10.45;100.00;98963.28;5111581;28;20030;-65
2023/10/27 04:51:03;;;;;;;11.25;5.47;;;;;;;10.56;100.00;98970.28;5107281;28;21449;-65
2023/10/27 04:53:29;;;;;;;12.40;5.72;;;;;;;10.57;100.00;98971.09;5111742;28;20034;-64
2023/10/27 04:55:54;;;;;;;16.58;7.03;;;;;;;10.57;100.00;98968.44;5091849;28;20486;-65
2023/10/27 04:58:20;;;;;;;19.73;10.43;;;;;;;10.42;100.00;98960.91;5109350;28;20039;-64
2023/10/27 05:00:46;;;;;;;19.23;6.45;;;;;;;10.57;100.00;98963.13;5090323;28;20478;-65
2023/10/27 05:03:12;;;;;;;11.32;6.50;;;;;;;10.58;100.00;98962.13;5088142;28;20166;-65
2023/10/27 05:05:39;;;;;;;11.13;5.97;;;;;;;10.59;100.00;98955.84;5109775;28;20023;-65
2023/10/27 05:08:05;;;;;;;12.93;5.55;;;;;;;10.58;100.00;98952.34;5090147;28;20055;-65
2023/10/27 05:10:30;;;;;;;11.57;5.53;;;;;;;10.60;100.00;98952.22;5109645;28;20030;-65
2023/10/27 05:12:55;;;;;;;11.52;5.72;;;;;;;10.59;100.00;98947.84;5110467;28;20149;-65
2023/10/27 05:15:21;;;;;;;18.83;10.98;;;;;;;10.45;100.00;98950.00;5091927;28;20028;-65
2023/10/27 05:17:46;;;;;;;12.93;5.80;;;;;;;10.58;100.00;98948.84;5109872;28;20055;-65
2023/10/27 05:20:14;;;;;;;13.77;7.00;;;;;;;10.58;100.00;98951.50;5109144;28;20023;-65
2023/10/27 05:22:40;;;;;;;16.23;10.82;;;;;;;10.53;100.00;98953.75;5110562;28;20053;-65
2023/10/27 05:25:06;;;;;;;20.35;10.77;;;;;;;10.45;100.00;98943.84;5110327;28;20398;-65
2023/10/27 05:27:33;;;;;;;10.60;6.15;;;;;;;10.51;100.00;98934.47;5091608;28;20091;-65
2023/10/27 05:29:59;;;;;;;11.48;5.60;;;;;;;10.53;100.00;98933.34;5109574;28;20022;-65
2023/10/27 05:32:25;;;;;;;10.93;6.38;;;;;;;10.60;100.00;98942.41;5109452;28;20029;-64
2023/10/27 05:34:50;;;;;;;10.63;5.95;;;;;;;10.54;100.00;98926.22;5108465;28;20043;-64
2023/10/27 05:37:15;;;;;;;8.32;5.97;;;;;;;10.60;100.00;98937.09;5108951;28;20020;-65
2023/10/27 05:39:41;;;;;;;10.57;6.13;;;;;;;10.60;100.00;98937.09;5110990;28;20097;-65
2023/10/27 05:42:06;;;;;;;11.60;6.38;;;;;;;10.61;100.00;98941.41;5109664;28;20477;-65
2023/10/27 05:44:32;;;;;;;10.13;6.63;;;;;;;10.57;100.00;98933.88;5110724;28;20076;-64
2023/10/27 05:47:01;;;;;;;13.00;10.50;;;;;;;10.51;100.00;98940.63;5090796;28;20066;-65
2023/10/27 05:49:27;;;;;;;16.40;10.80;;;;;;;10.48;100.00;98946.22;5089465;28;20024;-65
2023/10/27 05:51:53;;;;;;;14.55;10.38;;;;;;;10.45;100.00;98949.16;5109641;28;20024;-65
2023/10/27 05:54:18;;;;;;;13.05;10.18;;;;;;;10.43;100.00;98940.50;5110198;28;20110;-65
2023/10/27 05:56:44;;;;;;;10.07;6.15;;;;;;;10.56;100.00;98940.16;5091351;28;20298;-65
2023/10/27 05:59:12;;;;;;;11.15;6.97;;;;;;;10.61;100.00;98948.56;5110615;28;20043;-65
2023/10/27 06:01:37;;;;;;;15.98;6.78;;;;;;;10.61;100.00;98943.25;5090604;28;20028;-65
2023/10/27 06:04:03;;;;;;;14.68;7.60;;;;;;;10.62;100.00;98948.44;5111210;28;20069;-64
2023/10/27 06:06:28;;;;;;;9.48;6.85;;;;;;;10.60;100.00;98937.09;5110348;28;20042;-65
2023/10/27 06:08:58;;;;;;;11.48;7.88;;;;;;;10.61;100.00;98946.72;5110498;28;20019;-65
2023/10/27 06:11:24;;;;;;;9.82;6.65;;;;;;;10.64;100.00;98953.59;5110202;28;21992;-65
2023/10/27 06:13:49;;;;;;;13.40;12.02;;;;;;;10.51;100.00;98945.94;5117340;28;20032;-65
2023/10/27 06:16:14;;;;;;;16.27;11.82;;;;;;;10.42;100.00;98952.94;5116971;28;20031;-65
2023/10/27 06:18:41;;;;;;;12.73;6.50;;;;;;;10.58;100.00;98949.69;5096128;28;20008;-65
2023/10/27 06:21:08;;;;;;;13.98;11.80;;;;;;;10.48;100.00;98956.03;5117399;27;20024;-65
2023/10/27 06:23:34;;;;;;;8.80;6.30;;;;;;;10.57;100.00;98953.34;5098600;28;20393;-65
2023/10/27 06:26:00;;;;;;;16.08;12.82;;;;;;;10.46;100.00;98958.81;5095512;28;20019;-65
2023/10/27 06:28:25;;;;;;;16.00;12.27;;;;;;;10.46;100.00;98958.81;5095529;28;20068;-65
2023/10/27 06:30:51;;;;;;;14.90;12.57;;;;;;;10.49;100.00;98960.34;5097150;28;20023;-65
2023/10/27 06:33:16;;;;;;;15.15;13.68;;;;;;;10.40;100.00;98951.41;5093408;28;20028;-65
2023/10/27 06:35:42;;;;;;;12.35;7.65;;;;;;;10.58;100.00;98959.47;5116627;28;20027;-65
2023/10/27 06:38:07;;;;;;;17.42;12.43;;;;;;;10.44;100.00;98964.28;5116717;28;20431;-65
2023/10/27 06:40:33;;;;;;;9.75;6.72;;;;;;;10.56;100.00;98959.63;5098945;28;20027;-65
2023/10/27 06:42:58;;;;;;;14.20;12.70;;;;;;;10.50;100.00;98962.88;5115632;28;20043;-64
2023/10/27 06:45:24;;;;;;;15.00;12.43;;;;;;;10.46;100.00;98967.59;5098745;28;20524;-65
2023/10/27 06:47:49;;;;;;;12.73;11.52;;;;;;;10.45;100.00;98959.78;5117348;28;20120;-65
2023/10/27 06:50:15;;;;;;;11.27;6.90;;;;;;;10.58;100.00;98972.78;5097182;28;20035;-65
2023/10/27 06:52:43;;;;;;;11.98;6.50;;;;;;;10.58;100.00;98972.78;5117144;28;20065;-65
2023/10/27 06:55:09;;;;;;;9.68;6.78;;;;;;;10.58;100.00;98970.94;5116306;28;20482;-64
2023/10/27 06:57:34;;;;;;;10.35;6.68;;;;;;;10.61;100.00;98980.47;5097234;28;20278;-64
2023/10/27 07:00:02;;;;;;;11.60;6.20;;;;;;;10.60;100.00;98979.63;5116613;28;20039;-64
2023/10/27 07:02:27;;;;;;;12.55;11.32;;;;;;;10.52;100.00;98973.34;5115276;28;20023;-64
2023/10/27 07:04:52;;;;;;;12.20;10.35;;;;;;;10.52;100.00;98970.69;5098443;28;20494;-65
2023/10/27 07:07:19;;;;;;;12.57;11.40;;;;;;;10.43;100.00;98975.03;5117129;28;20098;-64
2023/10/27 07:09:44;;;;;;;10.65;7.53;;;;;;;10.57;100.00;98985.22;5116575;28;20022;-65
2023/10/27 07:12:10;;;;;;;12.40;11.23;;;;;;;10.47;100.00;98979.09;5114069;27;20024;-65
2023/10/27 07:14:40;;;;;;;7.90;6.30;;;;;;;10.53;100.00;98981.19;5117046;28;20051;-65
2023/10/27 07:17:05;;;;;;;11.85;10.48;;;;;;;10.48;100.00;98986.09;5098204;28;20386;-64
2023/10/27 07:19:34;;;;;;;12.38;10.88;;;;;;;10.49;100.00;98989.56;5115341;28;20023;-65
2023/10/27 07:22:00;;;;;;;7.60;6.20;;;;;;;10.61;100.00;98999.91;5109750;28;20023;-65
2023/10/27 07:24:29;;;;;;;8.80;6.53;;;;;;;10.59;100.00;98988.59;5114129;28;20499;-65
2023/10/27 07:26:55;;;;;;;7.32;5.95;;;;;;;10.65;100.00;99001.31;5095685;28;20058;-65
2023/10/27 07:29:20;;;;;;;8.32;6.00;;;;;;;10.64;100.00;98996.13;5113938;28;20431;-65
2023/10/27 07:31:45;;;;;;;7.18;5.68;;;;;;;10.65;100.00;99006.63;5113950;28;20554;-65
2023/10/27 07:34:11;;;;;;;7.47;6.00;;;;;;;10.66;100.00;99004.81;5114144;28;20030;-65
2023/10/27 07:36:36;;;;;;;7.60;6.03;;;;;;;10.68;100.00;99006.34;5093890;28;20024;-65
2023/10/27 07:39:04;;;;;;;6.18;5.55;;;;;;;10.67;100.00;99006.47;5111209;28;20019;-65
2023/10/27 07:41:31;;;;;;;8.00;6.05;;;;;;;10.72;100.00;99006.06;5095368;28;20110;-64
2023/10/27 07:43:56;;;;;;;6.40;5.80;;;;;;;10.71;100.00;99015.00;5112951;28;20027;-65
2023/10/27 07:46:22;;;;;;;9.35;5.90;;;;;;;10.71;100.00;99017.66;5113323;28;20035;-65
2023/10/27 07:48:47;;;;;;;7.53;5.63;;;;;;;10.71;100.00;99021.19;5113378;28;20024;-65
2023/10/27 07:51:12;;;;;;;6.97;5.78;;;;;;;10.72;100.00;99017.53;5094236;28;20122;-64
2023/10/27 07:53:38;;;;;;;6.13;5.53;;;;;;;10.72;100.00;99019.34;5113035;28;20094;-64
2023/10/27 07:56:07;;;;;;;7.85;6.05;;;;;;;10.74;100.00;99028.03;5092043;28;20018;-64
2023/10/27 07:58:33;;;;;;;7.60;6.00;;;;;;;10.73;100.00;99024.50;5109930;28;20039;-64
2023/10/27 08:00:58;;;;;;;9.00;6.25;;;;;;;10.76;100.00;99021.56;5113997;28;20497;-64
2023/10/27 08:03:24;;;;;;;7.35;5.82;;;;;;;10.74;100.00;99034.19;5112267;28;20088;-65
2023/10/27 08:05:50;;;;;;;10.38;6.18;;;;;;;10.69;100.00;99028.44;5111185;28;20540;-65
2023/10/27 08:08:17;;;;;;;7.25;6.07;;;;;;;10.68;100.00;99026.78;5110613;28;20024;-65
2023/10/27 08:10:46;;;;;;;12.02;10.60;;;;;;;10.59;100.00;99031.13;5086825;28;20020;-65
2023/10/27 08:13:12;;;;;;;9.82;5.63;;;;;;;10.72;100.00;99033.47;5113097;28;20073;-65
2023/10/27 08:15:37;;;;;;;11.27;10.27;;;;;;;10.63;100.00;99027.19;5113980;28;20469;-65
2023/10/27 08:18:03;;;;;;;11.18;10.25;;;;;;;10.62;100.00;99030.84;5095545;28;20019;-65
2023/10/27 08:20:29;;;;;;;7.03;5.93;;;;;;;10.73;100.00;99031.66;5110107;27;20024;-65
2023/10/27 08:22:54;;;;;;;11.13;10.13;;;;;;;10.62;100.00;99041.47;5113826;28;20072;-64
2023/10/27 08:25:22;;;;;;;11.45;10.38;;;;;;;10.62;100.00;99038.00;5092559;27;20157;-65
2023/10/27 08:27:48;;;;;;;10.60;9.57;;;;;;;10.61;100.00;99042.44;5111605;27;20060;-65
2023/10/27 08:30:14;;;;;;;6.05;5.18;;;;;;;10.73;100.00;99045.78;5113126;28;20107;-64
2023/10/27 08:32:42;;;;;;;6.30;5.05;;;;;;;10.74;100.00;99052.78;5113699;28;20020;-64
2023/10/27 08:35:08;;;;;;;5.90;4.95;;;;;;;10.74;100.00;99052.78;5094579;28;20020;-65
2023/10/27 08:37:33;;;;;;;5.90;4.60;;;;;;;10.72;100.00;99052.09;5092670;28;20023;-65
2023/10/27 08:39:59;;;;;;;6.70;4.57;;;;;;;10.73;100.00;99055.59;5100773;28;20053;-65
2023/10/27 08:42:33;;;;;;;9.45;8.43;;;;;;;10.61;100.00;99057.56;5113504;28;20023;-64
2023/10/27 08:45:01;;;;;;;5.95;5.35;;;;;;;10.69;100.00;99053.22;5112649;28;20539;-64
2023/10/27 08:47:33;;;;;;;6.40;5.47;;;;;;;10.72;100.00;99060.06;5077151;28;20048;-64
2023/10/27 08:50:01;;;;;;;8.15;5.88;;;;;;;10.75;100.00;99061.59;5107379;28;20023;-65
2023/10/27 08:52:27;;;;;;;7.15;5.00;;;;;;;10.74;100.00;99057.28;5111757;28;20080;-64
2023/10/27 08:54:52;;;;;;;6.68;5.53;;;;;;;10.80;100.00;99062.03;5093274;28;20016;-64
2023/10/27 08:57:18;;;;;;;9.65;6.55;;;;;;;10.82;100.00;99060.88;5089529;28;20027;-63
2023/10/27 08:59:43;;;;;;;7.05;5.90;;;;;;;10.73;100.00;99051.09;5112049;28;20447;-65
2023/10/27 09:02:09;;;;;;;13.85;7.47;;;;;;;10.76;100.00;99052.63;5109426;28;20024;-65
2023/10/27 09:04:42;;;;;;;6.10;5.50;;;;;;;10.79;100.00;99058.50;5109834;28;20024;-64
2023/10/27 09:07:08;;;;;;;12.77;11.48;;;;;;;10.67;100.00;99060.47;5103889;28;20035;-64
2023/10/27 09:09:33;;;;;;;9.55;6.47;;;;;;;10.78;100.00;99063.97;5089350;28;20023;-65
2023/10/27 09:11:59;;;;;;;8.68;6.38;;;;;;;10.81;100.00;99072.50;5110318;28;20035;-65
2023/10/27 09:14:33;;;;;;;9.88;6.22;;;;;;;10.82;100.00;99065.38;5094195;28;20024;-65
2023/10/27 09:17:06;;;;;;;9.75;6.55;;;;;;;10.86;100.00;99066.78;5093880;28;20031;-64
2023/10/27 09:19:32;;;;;;;9.80;6.45;;;;;;;10.87;100.00;99061.28;5112283;28;20031;-64
2023/10/27 09:21:58;;;;;;;12.82;11.52;;;;;;;10.81;100.00;99067.19;5083050;28;20016;-64
2023/10/27 09:24:28;;;;;;;9.38;6.10;;;;;;;10.92;100.00;99063.53;5108158;28;20493;-65
2023/10/27 09:26:55;;;;;;;10.10;6.25;;;;;;;10.94;100.00;99066.88;5109342;27;20110;-64
2023/10/27 09:29:21;;;;;;;12.77;11.48;;;;;;;10.83;100.00;99069.72;5106969;28;20015;-65
2023/10/27 09:31:50;;;;;;;8.82;6.18;;;;;;;10.98;100.00;99065.63;5092421;28;20508;-64
2023/10/27 09:34:17;;;;;;;12.85;11.55;;;;;;;10.85;100.00;99055.31;5092620;28;20034;-65
2023/10/27 09:36:55;;;;;;;13.60;11.70;;;;;;;10.91;100.00;99062.72;5092752;28;20486;-65
2023/10/27 09:39:24;;;;;;;14.52;6.57;;;;;;;11.04;100.00;99062.38;5090889;28;20427;-64
2023/10/27 09:42:02;;;;;;;13.05;11.75;;;;;;;11.00;100.00;99069.00;5110483;28;20110;-65
2023/10/27 09:44:42;;;;;;;11.32;7.00;;;;;;;11.10;100.00;99064.47;5108475;28;20023;-65
2023/10/27 09:47:25;;;;;;;12.68;7.25;;;;;;;11.16;100.00;99070.22;5111421;28;20037;-65
2023/10/27 09:49:58;;;;;;;11.07;7.43;;;;;;;11.20;100.00;99064.44;5111318;28;20487;-65
2023/10/27 09:52:28;;;;;;;17.30;8.07;;;;;;;11.26;100.00;99065.69;5107141;28;20023;-65
2023/10/27 09:54:57;;;;;;;10.02;7.00;;;;;;;11.29;100.00;99066.22;5111507;28;20698;-65
2023/10/27 09:57:23;;;;;;;11.15;8.07;;;;;;;11.28;100.00;99061.06;5102525;28;20093;-64
2023/10/27 09:59:54;;;;;;;11.88;8.23;;;;;;;11.34;100.00;99071.97;5091455;28;20428;-64
2023/10/27 10:02:22;;;;;;;15.77;14.32;;;;;;;11.21;100.00;99067.97;5116466;27;20473;-64
2023/10/27 10:04:51;;;;;;;14.27;8.40;;;;;;;11.32;100.00;99079.28;5104677;28;20019;-65
2023/10/27 10:07:41;;;;;;;12.55;8.18;;;;;;;11.34;100.00;99084.44;5110942;28;20092;-65
2023/10/27 10:10:37;;;;;;;12.98;8.27;;;;;;;11.32;100.00;99089.06;5080903;28;20040;-64
2023/10/27 10:13:09;;;;;;;12.38;7.78;;;;;;;11.27;100.00;99086.84;5103834;28;20032;-65
2023/10/27 10:15:37;;;;;;;11.63;7.43;;;;;;;11.12;100.00;99090.94;5108965;28;20470;-65
2023/10/27 10:18:06;;;;;;;16.25;14.65;;;;;;;11.12;100.00;99085.63;5108626;28;20068;-65
2023/10/27 10:20:52;;;;;;;16.27;14.45;;;;;;;11.07;100.00;99088.69;5108616;28;20361;-64
2023/10/27 10:23:18;;;;;;;13.45;8.07;;;;;;;11.13;100.00;99077.47;5108765;28;20468;-64
2023/10/27 10:25:56;;;;;;;15.30;8.68;;;;;;;11.17;100.00;99091.34;5092443;28;20021;-63
2023/10/27 10:28:27;;;;;;;14.50;8.82;;;;;;;11.14;100.00;99091.63;5106298;28;21733;-63
2023/10/27 10:31:08;;;;;;;16.23;9.90;;;;;;;11.12;100.00;99089.13;5091806;28;20031;-64
2023/10/27 10:33:37;;;;;;;14.75;9.00;;;;;;;11.05;100.00;99085.34;5089716;28;20511;-64
2023/10/27 10:36:22;;;;;;;;;;;;;;;11.12;100.00;99097.09;5090822;28;20084;-64
2023/10/27 10:38:53;;;;;;;18.05;16.17;;;;;;;11.00;100.00;99090.28;5109154;28;19911;-64
2023/10/27 10:41:19;;;;;;;14.90;9.20;;;;;;;11.07;100.00;99091.38;5110869;28;20072;-63
2023/10/27 10:43:45;;;;;;;13.10;8.43;;;;;;;10.98;100.00;99081.59;5092424;28;20478;-64
2023/10/27 10:46:12;;;;;;;11.98;8.55;;;;;;;11.08;100.00;99093.03;5107156;28;20032;-64
2023/10/27 10:48:45;;;;;;;16.52;10.10;;;;;;;11.11;100.00;99090.09;5110869;28;20027;-63
2023/10/27 10:51:15;;;;;;;19.63;11.55;;;;;;;11.12;100.00;99097.09;5110658;28;20058;-63
2023/10/27 10:53:42;;;;;;;22.75;19.77;;;;;;;11.04;100.00;99088.16;5110903;28;20420;-64
2023/10/27 10:56:10;;;;;;;18.88;10.45;;;;;;;11.14;100.00;99096.94;5111017;28;20390;-64
2023/10/27 10:58:40;;;;;;;17.52;11.13;;;;;;;11.18;100.00;99090.38;5093293;28;20538;-63
2023/10/27 11:01:15;;;;;;;20.80;11.32;;;;;;;11.24;100.00;99092.44;5114969;28;20023;-64
2023/10/27 11:03:46;;;;;;;23.75;12.45;;;;;;;11.27;100.00;99086.84;5097436;28;20020;-63
2023/10/27 11:06:11;;;;;;;24.38;19.55;;;;;;;11.24;100.00;99092.44;5096449;28;20016;-64
2023/10/27 11:08:39;;;;;;;13.85;10.40;;;;;;;11.30;100.00;99089.22;5080251;28;20031;-64
2023/10/27 11:11:07;;;;;;;13.57;9.10;;;;;;;11.32;100.00;99084.59;5115035;28;20127;-63
2023/10/27 11:13:39;;;;;;;14.90;9.25;;;;;;;11.36;100.00;99090.47;5096655;28;20061;-64